createdAt,value
2023-11-08T00:01:29.548Z,95462.00
2023-11-08T00:04:15.317Z,95473.97
2023-11-08T00:07:01.051Z,95474.56
2023-11-08T00:09:46.328Z,95467.06
2023-11-08T00:12:31.842Z,95467.06
2023-11-08T00:15:17.299Z,95469.28
2023-11-08T00:18:02.681Z,95478.03
2023-11-08T00:20:47.989Z,95472.75
2023-11-08T00:23:33.260Z,95463.97
2023-11-08T00:26:18.877Z,95460.28
2023-11-08T00:29:04.001Z,95462.94
2023-11-08T00:31:49.344Z,95462.13
2023-11-08T00:34:34.884Z,95467.22
2023-11-08T00:37:20.412Z,95462.56
2023-11-08T00:40:07.040Z,95455.88
2023-11-08T00:42:52.435Z,95450.34
2023-11-08T00:45:37.866Z,95446.09
2023-11-08T00:48:24.967Z,95454.22
2023-11-08T00:51:28.775Z,95440.19
2023-11-08T00:54:13.912Z,95441.00
2023-11-08T00:56:59.331Z,95440.78
2023-11-08T00:59:44.659Z,95434.69
2023-11-08T01:02:30.181Z,95433.63
2023-11-08T01:05:16.436Z,95427.59
2023-11-08T01:08:01.978Z,95435.78
2023-11-08T01:10:48.080Z,95422.28
2023-11-08T01:13:37.710Z,95426.59
2023-11-08T01:16:22.896Z,95424.72
2023-11-08T01:19:08.692Z,95412.88
2023-11-08T01:21:54.236Z,95408.03
2023-11-08T01:24:42.343Z,95408.03
2023-11-08T01:27:27.757Z,95411.28
2023-11-08T01:30:13.551Z,95407.59
2023-11-08T01:32:59.331Z,95418.28
2023-11-08T01:35:45.381Z,95418.75
2023-11-08T01:38:30.500Z,95415.94
2023-11-08T01:41:15.898Z,95416.38
2023-11-08T01:44:01.483Z,95413.28
2023-11-08T01:46:55.280Z,95402.91
2023-11-08T01:49:42.138Z,95405.41
2023-11-08T01:52:31.296Z,95408.88
2023-11-08T01:55:16.318Z,95405.50
2023-11-08T01:58:01.794Z,95405.25
2023-11-08T02:00:50.512Z,95402.19
2023-11-08T02:03:38.334Z,95408.38
2023-11-08T02:06:23.873Z,95404.28
2023-11-08T02:09:10.305Z,95401.50
2023-11-08T02:11:59.198Z,95392.53
2023-11-08T02:15:04.908Z,95392.78
2023-11-08T02:17:50.434Z,95392.78
2023-11-08T02:20:35.755Z,95383.56
2023-11-08T02:23:21.114Z,95391.66
2023-11-08T02:26:06.564Z,95399.75
2023-11-08T02:28:52.004Z,95394.59
2023-11-08T02:31:37.570Z,95400.50
2023-11-08T02:34:23.064Z,95389.44
2023-11-08T02:37:08.960Z,95397.38
2023-11-08T02:39:54.409Z,95395.56
2023-11-08T02:42:44.054Z,95383.13
2023-11-08T02:45:29.144Z,95383.72
2023-11-08T02:48:14.931Z,95388.66
2023-11-08T02:51:00.847Z,95386.25
2023-11-08T02:53:45.879Z,95393.72
2023-11-08T02:56:38.120Z,95397.19
2023-11-08T02:59:23.294Z,95398.00
2023-11-08T03:02:09.109Z,95396.38
2023-11-08T03:04:54.626Z,95404.56
2023-11-08T03:07:40.224Z,95409.31
2023-11-08T03:10:25.561Z,95410.78
2023-11-08T03:13:11.358Z,95413.00
2023-11-08T03:15:58.166Z,95411.97
2023-11-08T03:18:43.311Z,95419.09
2023-11-08T03:21:28.747Z,95420.53
2023-11-08T03:24:14.077Z,95427.41
2023-11-08T03:26:59.671Z,95427.19
2023-11-08T03:29:44.805Z,95427.19
2023-11-08T03:32:31.453Z,95419.91
2023-11-08T03:35:16.961Z,95426.69
2023-11-08T03:38:02.380Z,95427.34
2023-11-08T03:40:48.095Z,95419.78
2023-11-08T03:43:33.506Z,95418.72
2023-11-08T03:46:18.897Z,95421.53
2023-11-08T03:49:04.642Z,95426.28
2023-11-08T03:51:49.968Z,95425.03
2023-11-08T03:54:35.601Z,95423.84
2023-11-08T03:57:23.541Z,95429.56
2023-11-08T04:00:09.473Z,95425.09
2023-11-08T04:02:54.940Z,95424.44
2023-11-08T04:05:40.132Z,95424.44
2023-11-08T04:08:25.807Z,95431.34
2023-11-08T04:11:11.153Z,95428.94
2023-11-08T04:13:56.702Z,95433.63
2023-11-08T04:16:42.211Z,95425.69
2023-11-08T04:19:28.097Z,95428.09
2023-11-08T04:22:15.376Z,95431.34
2023-11-08T04:25:01.249Z,95427.50
2023-11-08T04:27:46.549Z,95428.56
2023-11-08T04:30:32.148Z,95423.69
2023-11-08T04:33:17.380Z,95422.56
2023-11-08T04:36:03.739Z,95422.78
2023-11-08T04:38:49.232Z,95426.59
2023-11-08T04:41:34.448Z,95431.25
2023-11-08T04:44:20.867Z,95427.94
2023-11-08T04:47:06.638Z,95419.34
2023-11-08T04:49:51.888Z,95419.94
2023-11-08T04:52:37.344Z,95421.59
2023-11-08T04:55:22.724Z,95424.00
2023-11-08T04:58:07.997Z,95415.03
2023-11-08T05:00:53.486Z,95416.66
2023-11-08T05:03:38.735Z,95425.63
2023-11-08T05:06:24.107Z,95422.38
2023-11-08T05:09:09.451Z,95417.06
2023-11-08T05:11:54.877Z,95423.63
2023-11-08T05:14:40.204Z,95420.38
2023-11-08T05:17:25.690Z,95419.56
2023-11-08T05:20:12.389Z,95421.06
2023-11-08T05:22:57.804Z,95421.28
2023-11-08T05:25:43.424Z,95424.72
2023-11-08T05:28:28.703Z,95430.44
2023-11-08T05:31:15.249Z,95435.13
2023-11-08T05:34:02.534Z,95436.63
2023-11-08T05:36:47.923Z,95428.31
2023-11-08T05:39:33.320Z,95442.16
2023-11-08T05:42:23.839Z,95434.66
2023-11-08T05:45:09.745Z,95439.72
2023-11-08T05:47:54.778Z,95438.34
2023-11-08T05:50:44.323Z,95441.41
2023-11-08T05:53:29.322Z,95450.16
2023-11-08T05:56:14.679Z,95453.41
2023-11-08T05:58:59.931Z,95456.03
2023-11-08T06:01:45.227Z,95457.28
2023-11-08T06:04:31.299Z,95467.84
2023-11-08T06:07:16.756Z,95467.84
2023-11-08T06:10:03.040Z,95466.84
2023-11-08T06:12:48.572Z,95472.75
2023-11-08T06:15:33.960Z,95482.88
2023-11-08T06:18:25.984Z,95490.22
2023-11-08T06:21:15.254Z,95494.34
2023-11-08T06:24:03.272Z,95490.81
2023-11-08T06:26:48.963Z,95499.78
2023-11-08T06:29:38.330Z,95501.00
2023-11-08T06:32:23.795Z,95514.03
2023-11-08T06:35:09.412Z,95513.22
2023-11-08T06:37:55.004Z,95510.38
2023-11-08T06:40:41.188Z,95515.22
2023-11-08T06:43:26.516Z,95518.47
2023-11-08T06:46:11.991Z,95530.72
2023-11-08T06:48:58.970Z,95535.59
2023-11-08T06:51:45.376Z,95539.06
2023-11-08T06:54:32.126Z,95542.09
2023-11-08T06:57:17.232Z,95547.28
2023-11-08T07:00:02.497Z,95547.88
2023-11-08T07:02:47.861Z,95549.28
2023-11-08T07:05:38.277Z,95545.78
2023-11-08T07:08:24.972Z,95543.34
2023-11-08T07:11:10.293Z,95547.44
2023-11-08T07:13:56.226Z,95552.53
2023-11-08T07:16:43.442Z,95560.25
2023-11-08T07:19:29.274Z,95552.75
2023-11-08T07:22:15.400Z,95557.00
2023-11-08T07:25:00.929Z,95554.19
2023-11-08T07:27:46.075Z,95562.75
2023-11-08T07:30:31.546Z,95556.03
2023-11-08T07:33:19.057Z,95571.47
2023-11-08T07:36:06.533Z,95570.28
2023-11-08T07:38:52.256Z,95565.19
2023-11-08T07:41:37.562Z,95566.16
2023-11-08T07:44:22.939Z,95573.09
2023-11-08T07:47:08.360Z,95567.84
2023-11-08T07:49:53.650Z,95570.69
2023-11-08T07:52:39.082Z,95571.47
2023-11-08T07:55:24.434Z,95567.41
2023-11-08T07:58:10.104Z,95566.97
2023-11-08T08:00:55.492Z,95564.72
2023-11-08T08:03:41.592Z,95565.72
2023-11-08T08:06:27.304Z,95563.09
2023-11-08T08:09:16.520Z,95557.84
2023-11-08T08:12:01.916Z,95555.25
2023-11-08T08:14:47.228Z,95548.78
2023-11-08T08:17:36.096Z,95551.84
2023-11-08T08:20:21.410Z,95551.63
2023-11-08T08:23:11.198Z,95560.59
2023-11-08T08:25:57.786Z,95563.88
2023-11-08T08:28:43.894Z,95557.34
2023-11-08T08:31:30.160Z,95562.81
2023-11-08T08:34:23.143Z,95566.84
2023-11-08T08:37:12.828Z,95561.00
2023-11-08T08:39:58.166Z,95556.72
2023-11-08T08:42:44.637Z,95564.50
2023-11-08T08:45:31.162Z,95571.63
2023-11-08T08:48:16.548Z,95568.38
2023-11-08T08:51:02.685Z,95576.94
2023-11-08T08:53:48.036Z,95572.25
2023-11-08T08:56:34.729Z,95578.97
2023-11-08T08:59:20.096Z,95581.00
2023-11-08T09:02:05.840Z,95583.00
2023-11-08T09:04:52.800Z,95584.81
2023-11-08T09:07:37.851Z,95581.19
2023-11-08T09:10:23.362Z,95577.31
2023-11-08T09:13:08.645Z,95583.41
2023-11-08T09:15:54.687Z,95569.53
2023-11-08T09:18:40.859Z,95566.06
2023-11-08T09:21:27.218Z,95565.44
2023-11-08T09:24:12.640Z,95574.00
2023-11-08T09:26:58.064Z,95569.13
2023-11-08T09:29:43.524Z,95580.06
2023-11-08T09:32:29.064Z,95581.69
2023-11-08T09:35:14.601Z,95573.59
2023-11-08T09:38:00.308Z,95574.81
2023-11-08T09:40:45.400Z,95574.00
2023-11-08T09:43:32.291Z,95569.94
2023-11-08T09:46:17.920Z,95571.31
2023-11-08T09:49:03.220Z,95568.72
2023-11-08T09:51:48.347Z,95563.00
2023-11-08T09:54:33.689Z,95567.47
2023-11-08T09:57:21.213Z,95574.38
2023-11-08T10:00:08.214Z,95571.66
2023-11-08T10:02:55.231Z,95571.22
2023-11-08T10:05:41.003Z,95574.66
2023-11-08T10:08:26.116Z,95580.78
2023-11-08T10:11:17.036Z,95568.34
2023-11-08T10:14:04.422Z,95564.03
2023-11-08T10:16:55.389Z,95562.00
2023-11-08T10:19:49.163Z,95559.16
2023-11-08T10:22:38.699Z,95570.94
2023-11-08T10:25:27.283Z,95574.19
2023-11-08T10:28:12.309Z,95577.06
2023-11-08T10:30:57.758Z,95576.22
2023-11-08T10:33:57.624Z,95587.59
2023-11-08T10:36:43.149Z,95576.16
2023-11-08T10:39:28.968Z,95576.53
2023-11-08T10:42:14.683Z,95571.47
2023-11-08T10:45:10.124Z,95569.22
2023-11-08T10:47:56.840Z,95575.31
2023-11-08T10:50:44.762Z,95572.91
2023-11-08T10:53:29.990Z,95577.31
2023-11-08T10:56:18.930Z,95573.03
2023-11-08T10:59:05.477Z,95554.94
2023-11-08T11:01:50.686Z,95564.69
2023-11-08T11:04:36.347Z,95562.59
2023-11-08T11:07:25.915Z,95553.63
2023-11-08T11:10:13.245Z,95558.69
2023-11-08T11:13:04.939Z,95551.09
2023-11-08T11:15:59.548Z,95551.41
2023-11-08T11:18:47.437Z,95554.66
2023-11-08T11:21:45.017Z,95561.06
2023-11-08T11:24:39.124Z,95562.53
2023-11-08T11:27:33.682Z,95554.53
2023-11-08T11:30:19.012Z,95567.19
2023-11-08T11:33:06.352Z,95559.84
2023-11-08T11:35:51.870Z,95570.72
2023-11-08T11:38:37.364Z,95577.19
2023-11-08T11:41:26.294Z,95566.59
2023-11-08T11:44:13.786Z,95577.94
2023-11-08T11:46:58.912Z,95576.16
2023-11-08T11:49:49.574Z,95579.97
2023-11-08T11:52:37.039Z,95589.78
2023-11-08T11:55:22.822Z,95588.94
2023-11-08T11:58:12.174Z,95598.00
2023-11-08T12:00:57.632Z,95600.94
2023-11-08T12:03:44.375Z,95600.44
2023-11-08T12:06:30.223Z,95603.56
2023-11-08T12:09:15.382Z,95604.13
2023-11-08T12:12:00.889Z,95602.22
2023-11-08T12:14:46.288Z,95602.19
2023-11-08T12:17:31.777Z,95605.38
2023-11-08T12:20:21.230Z,95599.22
2023-11-08T12:23:08.050Z,95605.28
2023-11-08T12:25:53.270Z,95605.47
2023-11-08T12:28:39.533Z,95604.47
2023-11-08T12:31:28.944Z,95605.25
2023-11-08T12:34:16.164Z,95610.94
2023-11-08T12:37:01.612Z,95606.84
2023-11-08T12:39:47.052Z,95595.66
2023-11-08T12:42:32.516Z,95594.00
2023-11-08T12:46:34.174Z,95595.31
2023-11-08T12:48:40.021Z,95611.44
2023-11-08T12:51:33.575Z,95601.81
2023-11-08T12:54:20.197Z,95608.34
2023-11-08T12:57:06.546Z,95608.53
2023-11-08T12:59:52.223Z,95607.19
2023-11-08T13:02:37.392Z,95601.50
2023-11-08T13:05:22.968Z,95592.50
2023-11-08T13:08:13.614Z,95596.16
2023-11-08T13:11:02.044Z,95606.91
2023-11-08T13:13:47.224Z,95609.56
2023-11-08T13:16:33.865Z,95610.31
2023-11-08T13:19:19.337Z,95613.03
2023-11-08T13:22:04.766Z,95609.34
2023-11-08T13:24:52.037Z,95613.47
2023-11-08T13:27:37.123Z,95616.72
2023-11-08T13:30:24.182Z,95614.84
2023-11-08T13:33:09.709Z,95615.63
2023-11-08T13:35:55.010Z,95609.50
2023-11-08T13:38:40.671Z,95608.28
2023-11-08T13:41:26.358Z,95624.78
2023-11-08T13:44:11.562Z,95629.06
2023-11-08T13:46:56.934Z,95631.91
2023-11-08T13:49:42.488Z,95639.69
2023-11-08T13:52:27.930Z,95631.94
2023-11-08T13:55:13.529Z,95641.50
2023-11-08T13:57:58.743Z,95639.28
2023-11-08T14:00:45.522Z,95649.94
2023-11-08T14:03:30.893Z,95649.19
2023-11-08T14:06:16.429Z,95651.63
2023-11-08T14:09:01.815Z,95651.59
2023-11-08T14:11:48.110Z,95653.94
2023-11-08T14:14:34.123Z,95659.31
2023-11-08T14:17:22.805Z,95649.25
2023-11-08T14:20:09.040Z,95643.13
2023-11-08T14:22:54.792Z,95650.81
2023-11-08T14:25:39.898Z,95654.66
2023-11-08T14:28:25.439Z,95655.06
2023-11-08T14:31:11.450Z,95656.50
2023-11-08T14:33:57.092Z,95658.94
2023-11-08T14:36:56.331Z,95662.84
2023-11-08T14:39:43.019Z,95660.19
2023-11-08T14:42:28.444Z,95658.16
2023-11-08T14:45:13.827Z,95660.06
2023-11-08T14:47:59.552Z,95650.91
2023-11-08T14:50:44.864Z,95653.75
2023-11-08T14:53:30.372Z,95656.44
2023-11-08T14:56:16.290Z,95659.91
2023-11-08T14:59:01.732Z,95663.59
2023-11-08T15:01:46.794Z,95657.91
2023-11-08T15:04:32.191Z,95657.97
2023-11-08T15:09:40.737Z,95653.50
2023-11-08T15:10:23.293Z,95667.56
2023-11-08T15:13:08.593Z,95674.28
2023-11-08T15:15:53.924Z,95673.09
2023-11-08T15:18:39.325Z,95677.59
2023-11-08T15:21:26.615Z,95676.16
2023-11-08T15:24:12.650Z,95679.44
2023-11-08T15:26:58.158Z,95679.25
2023-11-08T15:29:43.329Z,95683.31
2023-11-08T15:32:29.171Z,95678.06
2023-11-08T15:35:14.241Z,95685.38
2023-11-08T15:37:59.849Z,95683.38
2023-11-08T15:40:46.004Z,95692.91
2023-11-08T15:43:31.140Z,95697.19
2023-11-08T15:46:16.575Z,95691.09
2023-11-08T15:49:01.697Z,95691.50
2023-11-08T15:51:47.157Z,95693.97
2023-11-08T15:54:32.211Z,95692.34
2023-11-08T15:57:17.590Z,95697.66
2023-11-08T16:00:02.875Z,95703.72
2023-11-08T16:02:48.348Z,95698.03
2023-11-08T16:05:35.052Z,95703.94
2023-11-08T16:08:20.543Z,95709.38
2023-11-08T16:11:06.272Z,95715.06
2023-11-08T16:13:53.683Z,95712.00
2023-11-08T16:16:44.083Z,95712.00
2023-11-08T16:19:29.323Z,95713.81
2023-11-08T16:22:14.974Z,95713.59
2023-11-08T16:25:00.804Z,95719.06
2023-11-08T16:27:46.695Z,95717.84
2023-11-08T16:30:59.936Z,95716.00
2023-11-08T16:33:39.162Z,95725.53
2023-11-08T16:36:26.519Z,95732.41
2023-11-08T16:39:15.293Z,95732.81
2023-11-08T16:42:01.772Z,95726.09
2023-11-08T16:44:47.297Z,95732.97
2023-11-08T16:47:34.078Z,95725.88
2023-11-08T16:50:19.538Z,95733.16
2023-11-08T16:53:08.855Z,95745.72
2023-11-08T16:55:54.185Z,95743.69
2023-11-08T16:58:42.590Z,95743.28
2023-11-08T17:01:30.768Z,95739.81
2023-11-08T17:04:15.881Z,95745.09
2023-11-08T17:07:01.195Z,95742.66
2023-11-08T17:09:46.201Z,95749.09
2023-11-08T17:12:31.559Z,95746.66
2023-11-08T17:15:17.702Z,95751.91
2023-11-08T17:18:03.205Z,95757.38
2023-11-08T17:20:51.419Z,95751.69
2023-11-08T17:23:36.625Z,95752.88
2023-11-08T17:26:22.003Z,95750.00
2023-11-08T17:29:07.322Z,95755.69
2023-11-08T17:31:52.836Z,95754.25
2023-11-08T17:34:38.474Z,95756.06
2023-11-08T17:37:23.642Z,95757.84
2023-11-08T17:40:09.771Z,95755.19
2023-11-08T17:42:55.344Z,95750.50
2023-11-08T17:45:42.701Z,95758.41
2023-11-08T17:48:28.002Z,95749.25
2023-11-08T17:51:13.414Z,95757.53
2023-11-08T17:53:58.879Z,95757.75
2023-11-08T17:56:47.437Z,95747.31
2023-11-08T17:59:33.642Z,95754.78
2023-11-08T18:02:18.688Z,95761.47
2023-11-08T18:05:04.486Z,95755.31
2023-11-08T18:07:49.891Z,95761.41
2023-11-08T18:10:35.354Z,95767.88
2023-11-08T18:13:20.515Z,95764.16
2023-11-08T18:16:06.157Z,95760.53
2023-11-08T18:18:51.478Z,95761.38
2023-11-08T18:21:37.687Z,95758.91
2023-11-08T18:24:23.855Z,95769.28
2023-11-08T18:27:09.446Z,95758.91
2023-11-08T18:29:55.403Z,95766.38
2023-11-08T18:32:40.830Z,95764.94
2023-11-08T18:35:26.529Z,95772.66
2023-11-08T18:38:11.752Z,95772.25
2023-11-08T18:40:56.909Z,95775.16
2023-11-08T18:43:47.491Z,95780.41
2023-11-08T18:46:33.758Z,95785.31
2023-11-08T18:49:19.277Z,95786.94
2023-11-08T18:52:06.104Z,95787.38
2023-11-08T18:54:52.607Z,95786.34
2023-11-08T18:57:38.223Z,95793.81
2023-11-08T19:00:24.558Z,95796.66
2023-11-08T19:03:10.091Z,95797.22
2023-11-08T19:05:55.370Z,95797.38
2023-11-08T19:08:40.804Z,95795.66
2023-11-08T19:11:29.996Z,95801.75
2023-11-08T19:14:17.449Z,95801.00
2023-11-08T19:17:03.181Z,95805.47
2023-11-08T19:19:48.585Z,95809.91
2023-11-08T19:22:33.879Z,95813.91
2023-11-08T19:25:19.572Z,95815.75
2023-11-08T19:28:04.701Z,95818.19
2023-11-08T19:30:50.375Z,95809.47
2023-11-08T19:33:35.962Z,95807.03
2023-11-08T19:36:24.571Z,95825.22
2023-11-08T19:39:09.903Z,95818.28
2023-11-08T19:41:55.871Z,95818.41
2023-11-08T19:44:42.046Z,95813.28
2023-11-08T19:47:28.002Z,95812.47
2023-11-08T19:50:13.545Z,95815.28
2023-11-08T19:52:59.669Z,95813.66
2023-11-08T19:55:45.487Z,95813.94
2023-11-08T19:58:31.034Z,95810.34
2023-11-08T20:01:16.925Z,95813.94
2023-11-08T20:04:02.719Z,95817.16
2023-11-08T20:06:50.351Z,95815.50
2023-11-08T20:09:36.236Z,95826.03
2023-11-08T20:12:22.026Z,95815.69
2023-11-08T20:15:08.525Z,95817.34
2023-11-08T20:17:54.267Z,95824.03
2023-11-08T20:20:39.799Z,95820.84
2023-11-08T20:23:27.444Z,95815.41
2023-11-08T20:26:12.964Z,95815.22
2023-11-08T20:28:58.342Z,95813.03
2023-11-08T20:31:46.055Z,95811.03
2023-11-08T20:34:32.411Z,95808.41
2023-11-08T20:37:17.993Z,95806.38
2023-11-08T20:40:04.487Z,95812.28
2023-11-08T20:42:50.449Z,95809.63
2023-11-08T20:45:35.862Z,95807.84
2023-11-08T20:48:20.993Z,95816.56
2023-11-08T20:51:06.625Z,95810.66
2023-11-08T20:53:51.751Z,95810.66
2023-11-08T20:56:37.250Z,95805.19
2023-11-08T20:59:23.073Z,95813.28
2023-11-08T21:02:08.551Z,95803.13
2023-11-08T21:04:53.869Z,95800.69
2023-11-08T21:07:39.295Z,95799.50
2023-11-08T21:10:24.819Z,95804.38
2023-11-08T21:13:10.156Z,95811.28
2023-11-08T21:15:55.671Z,95804.81
2023-11-08T21:18:41.665Z,95808.91
2023-11-08T21:21:27.161Z,95806.09
2023-11-08T21:24:13.008Z,95809.16
2023-11-08T21:26:58.320Z,95815.78
2023-11-08T21:29:43.735Z,95817.44
2023-11-08T21:32:29.071Z,95814.41
2023-11-08T21:35:14.515Z,95820.88
2023-11-08T21:38:00.205Z,95819.19
2023-11-08T21:40:45.225Z,95817.78
2023-11-08T21:43:30.601Z,95817.06
2023-11-08T21:46:15.916Z,95820.94
2023-11-08T21:49:01.395Z,95806.78
2023-11-08T21:51:47.034Z,95824.81
2023-11-08T21:54:32.374Z,95815.31
2023-11-08T21:57:18.935Z,95809.03
2023-11-08T22:00:07.523Z,95810.03
2023-11-08T22:02:52.938Z,95808.38
2023-11-08T22:05:40.017Z,95810.63
2023-11-08T22:08:25.132Z,95809.66
2023-11-08T22:11:10.569Z,95817.56
2023-11-08T22:13:56.164Z,95810.84
2023-11-08T22:16:41.297Z,95811.47
2023-11-08T22:19:26.697Z,95815.56
2023-11-08T22:22:12.001Z,95807.84
2023-11-08T22:24:58.703Z,95820.94
2023-11-08T22:27:43.728Z,95815.06
2023-11-08T22:30:29.214Z,95814.63
2023-11-08T22:33:14.540Z,95809.25
2023-11-08T22:35:59.945Z,95820.16
2023-11-08T22:38:45.272Z,95803.94
2023-11-08T22:41:30.660Z,95813.66
2023-11-08T22:44:16.208Z,95808.75
2023-11-08T22:47:01.513Z,95813.41
2023-11-08T22:49:46.939Z,95816.38
2023-11-08T22:52:32.258Z,95814.78
2023-11-08T22:55:17.705Z,95817.78
2023-11-08T22:58:03.380Z,95818.13
2023-11-08T23:00:50.672Z,95816.50
2023-11-08T23:03:35.743Z,95823.44
2023-11-08T23:06:23.827Z,95819.34
2023-11-08T23:09:09.452Z,95814.09
2023-11-08T23:11:56.016Z,95815.91
2023-11-08T23:14:41.949Z,95815.75
2023-11-08T23:17:27.009Z,95821.34
2023-11-08T23:20:15.938Z,95822.50
2023-11-08T23:23:01.335Z,95819.44
2023-11-08T23:25:46.681Z,95817.56
2023-11-08T23:28:32.480Z,95811.84
2023-11-08T23:31:21.001Z,95809.78
2023-11-08T23:34:06.941Z,95817.03
2023-11-08T23:36:52.487Z,95808.50
2023-11-08T23:39:37.853Z,95806.25
2023-11-08T23:42:23.147Z,95801.34
2023-11-08T23:45:08.832Z,95811.03
2023-11-08T23:47:53.932Z,95812.94
2023-11-08T23:50:39.500Z,95808.72
2023-11-08T23:53:25.258Z,95801.88
2023-11-08T23:56:10.613Z,95804.34
2023-11-08T23:58:56.045Z,95810.41
